Time;durP1;ratioP1;P1;durP2;ratioP2;P2;SDS_P1;SDS_P2;PMS_P1;PMS_P2;Temp;Humidity;BMP_temperature;BMP_pressure;BME280_temperature;BME280_humidity;BME280_pressure;Samples;Min_cycle;Max_cycle;Signal;HPM_P1;HPM_P2
2022/07/19 00:01:30;;;;;;;446.15;418.67;;;18.90;99.90;;;;;;5096448;28;20047;-61
2022/07/19 00:03:57;;;;;;;424.95;399.17;;;18.90;99.90;;;;;;5096140;28;20039;-60
2022/07/19 00:06:22;;;;;;;420.10;394.67;;;18.80;99.90;;;;;;5089861;28;20208;-60
2022/07/19 00:08:48;;;;;;;487.48;456.60;;;18.80;99.90;;;;;;5058027;28;20394;-61
2022/07/19 00:11:14;;;;;;;378.73;357.92;;;18.80;99.90;;;;;;5057840;28;20549;-60
2022/07/19 00:13:40;;;;;;;424.55;400.05;;;18.80;99.90;;;;;;5074259;28;20053;-60
2022/07/19 00:16:06;;;;;;;420.38;395.27;;;18.80;99.90;;;;;;5087261;28;20047;-61
2022/07/19 00:18:31;;;;;;;475.25;445.90;;;18.80;99.90;;;;;;5095964;28;20044;-61
2022/07/19 00:20:57;;;;;;;408.65;384.60;;;18.90;99.90;;;;;;5094800;28;20047;-60
2022/07/19 00:23:23;;;;;;;441.83;415.25;;;18.80;99.90;;;;;;5095955;28;20051;-61
2022/07/19 00:25:48;;;;;;;394.48;371.13;;;18.80;99.90;;;;;;5094961;28;20044;-60
2022/07/19 00:28:14;;;;;;;412.95;389.02;;;18.80;99.90;;;;;;5074256;28;20055;-60
2022/07/19 00:30:40;;;;;;;397.65;373.88;;;18.70;99.90;;;;;;5075540;28;20114;-60
2022/07/19 00:33:08;;;;;;;357.30;337.05;;;18.60;99.90;;;;;;5071131;28;20393;-60
2022/07/19 00:35:37;;;;;;;376.98;356.67;;;18.60;99.90;;;;;;5066332;28;20080;-60
2022/07/19 00:38:06;;;;;;;402.83;380.15;;;18.50;99.90;;;;;;5075247;28;20063;-60
2022/07/19 00:40:31;;;;;;;378.17;357.10;;;18.50;99.90;;;;;;5075227;28;20045;-60
2022/07/19 00:42:57;;;;;;;415.02;389.80;;;18.50;99.90;;;;;;5073460;28;20059;-60
2022/07/19 00:45:23;;;;;;;395.35;372.60;;;18.40;99.90;;;;;;5075195;28;20072;-60
2022/07/19 00:47:49;;;;;;;454.35;425.50;;;18.30;99.90;;;;;;5074381;28;20498;-61
2022/07/19 00:50:15;;;;;;;413.15;389.10;;;18.30;99.90;;;;;;5074449;28;20051;-61
2022/07/19 00:52:45;;;;;;;468.65;438.50;;;18.30;99.90;;;;;;5057008;28;20049;-60
2022/07/19 00:55:11;;;;;;;431.65;404.77;;;18.30;99.90;;;;;;5073837;28;20040;-60
2022/07/19 00:57:38;;;;;;;485.70;454.85;;;18.20;99.90;;;;;;5074817;28;20079;-60
2022/07/19 01:00:06;;;;;;;444.83;416.25;;;18.20;99.90;;;;;;5086428;28;20052;-60
2022/07/19 01:02:32;;;;;;;444.80;417.70;;;18.20;99.90;;;;;;5094224;28;20123;-60
2022/07/19 01:05:00;;;;;;;456.55;429.25;;;18.10;99.90;;;;;;5083775;28;20045;-60
2022/07/19 01:07:26;;;;;;;467.75;438.67;;;18.20;99.90;;;;;;5074301;28;20119;-60
2022/07/19 01:09:52;;;;;;;405.83;381.85;;;18.10;99.90;;;;;;5073993;28;20080;-60
2022/07/19 01:12:20;;;;;;;420.63;396.60;;;17.90;99.90;;;;;;5073452;28;20064;-60
2022/07/19 01:14:46;;;;;;;384.45;362.75;;;17.70;99.90;;;;;;5073901;28;20467;-60
2022/07/19 01:17:12;;;;;;;377.88;355.73;;;17.70;99.90;;;;;;5072800;28;20525;-60
2022/07/19 01:19:37;;;;;;;400.17;377.45;;;17.70;99.90;;;;;;5073589;28;20040;-60
2022/07/19 01:22:03;;;;;;;497.83;465.17;;;17.70;99.90;;;;;;5074043;28;20634;-60
2022/07/19 01:24:29;;;;;;;484.95;453.92;;;17.70;99.90;;;;;;5072456;28;20098;-60
2022/07/19 01:26:55;;;;;;;499.23;468.73;;;17.70;99.90;;;;;;5085774;28;20470;-60
2022/07/19 01:29:20;;;;;;;494.90;463.27;;;17.70;99.90;;;;;;5094783;28;20040;-60
2022/07/19 01:31:46;;;;;;;474.98;446.17;;;17.70;99.90;;;;;;5093450;28;20052;-60
2022/07/19 01:34:12;;;;;;;410.35;386.52;;;17.70;99.90;;;;;;5056600;28;20563;-60
2022/07/19 01:36:38;;;;;;;399.30;376.77;;;17.70;99.90;;;;;;5055937;28;20088;-60
2022/07/19 01:39:03;;;;;;;407.73;384.25;;;17.70;99.90;;;;;;5055120;28;20088;-60
2022/07/19 01:41:29;;;;;;;465.92;437.23;;;17.60;99.90;;;;;;5073537;28;20143;-60
2022/07/19 01:43:55;;;;;;;448.80;422.27;;;17.50;99.90;;;;;;5079875;28;20070;-60
2022/07/19 01:46:20;;;;;;;413.60;388.95;;;17.40;99.90;;;;;;5093694;28;20482;-60
2022/07/19 01:48:46;;;;;;;364.83;344.52;;;17.40;99.90;;;;;;5077127;28;20130;-60
2022/07/19 01:51:12;;;;;;;427.35;402.17;;;17.30;99.90;;;;;;5073149;28;20041;-60
2022/07/19 01:53:38;;;;;;;490.17;457.63;;;17.30;99.90;;;;;;5086771;28;20398;-60
2022/07/19 01:56:06;;;;;;;442.15;414.10;;;17.30;99.90;;;;;;5093869;28;20093;-60
2022/07/19 01:58:32;;;;;;;372.30;351.00;;;17.30;99.90;;;;;;5093363;28;20498;-60
2022/07/19 02:01:01;;;;;;;509.75;476.38;;;17.20;99.90;;;;;;5093130;28;20044;-60
2022/07/19 02:03:27;;;;;;;434.15;407.10;;;17.10;99.90;;;;;;5093570;28;20493;-60
2022/07/19 02:05:53;;;;;;;438.10;411.70;;;17.10;99.90;;;;;;5088266;28;20044;-60
2022/07/19 02:08:18;;;;;;;485.40;453.52;;;17.10;99.90;;;;;;5073441;28;20052;-60
2022/07/19 02:10:44;;;;;;;411.08;386.30;;;17.10;99.90;;;;;;5073132;28;20040;-60
2022/07/19 02:13:10;;;;;;;537.88;502.33;;;17.10;99.90;;;;;;5072764;28;20127;-60
2022/07/19 02:15:36;;;;;;;452.48;423.98;;;17.00;99.90;;;;;;5072554;28;20094;-60
2022/07/19 02:18:01;;;;;;;450.10;422.65;;;17.00;99.90;;;;;;5072066;28;20047;-60
2022/07/19 02:20:27;;;;;;;390.58;365.58;;;16.90;99.90;;;;;;5073480;28;20056;-60
2022/07/19 02:22:53;;;;;;;396.17;371.92;;;16.90;99.90;;;;;;5072641;28;20072;-60
2022/07/19 02:25:19;;;;;;;407.90;383.42;;;16.80;99.90;;;;;;5072957;28;20052;-60
2022/07/19 02:27:45;;;;;;;480.38;447.65;;;16.70;99.90;;;;;;5074888;28;20051;-60
2022/07/19 02:30:11;;;;;;;468.00;438.02;;;16.60;99.90;;;;;;5093284;28;20071;-60
2022/07/19 02:32:38;;;;;;;420.48;393.88;;;16.60;99.90;;;;;;5068712;28;20053;-60
2022/07/19 02:35:07;;;;;;;480.17;448.38;;;16.50;99.90;;;;;;5072300;28;20040;-60
2022/07/19 02:37:32;;;;;;;529.28;493.52;;;16.50;99.90;;;;;;5072725;28;20056;-60
2022/07/19 02:39:58;;;;;;;459.75;429.17;;;16.50;99.90;;;;;;5072682;28;20071;-60
2022/07/19 02:42:24;;;;;;;516.10;481.58;;;16.50;99.90;;;;;;5071893;28;20060;-60
2022/07/19 02:44:50;;;;;;;421.83;395.92;;;16.60;99.90;;;;;;5055147;28;20383;-60
2022/07/19 02:47:16;;;;;;;438.55;410.20;;;16.60;99.90;;;;;;5072001;28;20051;-60
2022/07/19 02:49:41;;;;;;;573.95;533.25;;;16.70;99.90;;;;;;5054095;28;20087;-60
2022/07/19 02:52:07;;;;;;;448.63;420.23;;;16.70;99.90;;;;;;5072101;28;20083;-60
2022/07/19 02:54:33;;;;;;;517.90;482.90;;;16.80;99.90;;;;;;5071412;28;20054;-60
2022/07/19 02:56:59;;;;;;;566.53;527.20;;;16.80;99.90;;;;;;5072772;28;20055;-60
2022/07/19 02:59:24;;;;;;;515.92;481.23;;;16.80;99.90;;;;;;5072965;28;20538;-60
2022/07/19 03:01:50;;;;;;;492.25;459.02;;;16.90;99.90;;;;;;5071449;28;20426;-60
2022/07/19 03:04:16;;;;;;;526.22;489.52;;;16.90;99.90;;;;;;5072108;28;20044;-60
2022/07/19 03:06:42;;;;;;;478.70;446.55;;;16.90;99.90;;;;;;5072648;28;20047;-60
2022/07/19 03:09:07;;;;;;;549.80;512.55;;;17.00;99.90;;;;;;5071607;28;20088;-60
2022/07/19 03:11:33;;;;;;;521.83;487.55;;;17.00;99.90;;;;;;5072678;28;20044;-60
2022/07/19 03:13:59;;;;;;;509.60;476.08;;;17.00;99.90;;;;;;5074523;28;20426;-60
2022/07/19 03:16:24;;;;;;;506.85;473.98;;;17.00;99.90;;;;;;5071701;28;20044;-60
2022/07/19 03:18:50;;;;;;;502.52;468.45;;;17.00;99.90;;;;;;5072186;28;20048;-60
2022/07/19 03:21:16;;;;;;;542.80;506.23;;;17.00;99.90;;;;;;5072332;28;20040;-60
2022/07/19 03:23:41;;;;;;;517.38;484.50;;;17.00;99.90;;;;;;5053892;28;20486;-60
2022/07/19 03:26:07;;;;;;;497.27;465.10;;;17.00;99.90;;;;;;5072246;28;20076;-60
2022/07/19 03:28:34;;;;;;;572.08;533.22;;;17.00;99.90;;;;;;5072583;28;20131;-60
2022/07/19 03:31:00;;;;;;;563.08;522.83;;;17.00;99.90;;;;;;5071312;28;20043;-60
2022/07/19 03:33:26;;;;;;;499.17;467.60;;;17.00;99.90;;;;;;5072217;28;20058;-60
2022/07/19 03:35:52;;;;;;;611.90;567.85;;;17.10;99.90;;;;;;5054499;28;20049;-60
2022/07/19 03:38:17;;;;;;;614.42;573.25;;;17.10;99.90;;;;;;5071486;28;20044;-60
2022/07/19 03:40:47;;;;;;;445.77;419.65;;;17.10;99.90;;;;;;5071992;28;20482;-60
2022/07/19 03:43:14;;;;;;;460.15;432.10;;;17.10;99.90;;;;;;5072233;28;20056;-60
2022/07/19 03:45:41;;;;;;;527.38;492.98;;;17.10;99.90;;;;;;5071662;28;20462;-60
2022/07/19 03:48:07;;;;;;;518.70;483.58;;;17.10;99.90;;;;;;5080318;28;20140;-60
2022/07/19 03:50:33;;;;;;;484.27;452.20;;;17.10;99.90;;;;;;5081513;28;20120;-60
2022/07/19 03:52:59;;;;;;;499.15;466.33;;;17.00;99.90;;;;;;5071678;28;20048;-60
2022/07/19 03:55:25;;;;;;;423.50;397.67;;;17.00;99.90;;;;;;5053877;28;20434;-59
2022/07/19 03:57:50;;;;;;;430.08;402.20;;;16.90;99.90;;;;;;5087075;28;20093;-60
2022/07/19 04:00:16;;;;;;;460.50;432.35;;;17.00;99.90;;;;;;5073953;28;20051;-60
2022/07/19 04:02:42;;;;;;;447.20;417.83;;;16.90;99.90;;;;;;5074663;28;20056;-60
2022/07/19 04:05:08;;;;;;;485.95;454.48;;;17.00;99.90;;;;;;5073368;28;20045;-60
2022/07/19 04:07:35;;;;;;;455.77;427.05;;;17.00;99.90;;;;;;5075946;28;20052;-60
2022/07/19 04:10:01;;;;;;;477.92;446.63;;;17.00;99.90;;;;;;5057381;28;20040;-60
2022/07/19 04:12:26;;;;;;;497.02;464.85;;;17.10;99.90;;;;;;5074992;28;20052;-60
2022/07/19 04:14:52;;;;;;;566.92;528.00;;;17.10;99.90;;;;;;5075574;28;20099;-60
2022/07/19 04:17:18;;;;;;;467.90;438.38;;;17.00;99.90;;;;;;5075094;28;20086;-60
2022/07/19 04:19:44;;;;;;;438.02;410.00;;;17.00;99.90;;;;;;5056985;28;20110;-60
2022/07/19 04:22:09;;;;;;;525.33;491.17;;;17.00;99.90;;;;;;5057516;28;20080;-60
2022/07/19 04:24:35;;;;;;;439.35;411.90;;;17.00;99.90;;;;;;5075118;28;20044;-60
2022/07/19 04:27:01;;;;;;;492.02;459.88;;;17.10;99.90;;;;;;5074928;28;20056;-60
2022/07/19 04:29:27;;;;;;;499.17;465.23;;;17.10;99.90;;;;;;5075631;28;20048;-60
2022/07/19 04:31:52;;;;;;;456.30;426.92;;;17.20;99.90;;;;;;5079057;28;20059;-60
2022/07/19 04:34:18;;;;;;;473.15;440.15;;;17.20;99.90;;;;;;5074911;28;20087;-60
2022/07/19 04:36:44;;;;;;;498.27;464.33;;;17.20;99.90;;;;;;5075328;28;20084;-60
2022/07/19 04:39:10;;;;;;;507.63;473.30;;;17.30;99.90;;;;;;5075003;28;20089;-60
2022/07/19 04:41:35;;;;;;;528.70;493.42;;;17.30;99.90;;;;;;5086101;28;20052;-60
2022/07/19 04:44:01;;;;;;;441.55;412.95;;;17.40;99.90;;;;;;5089210;28;20131;-60
2022/07/19 04:46:27;;;;;;;521.72;486.05;;;17.40;99.90;;;;;;5074368;28;20056;-60
2022/07/19 04:48:53;;;;;;;447.73;419.55;;;17.50;99.90;;;;;;5055539;28;20056;-60
2022/07/19 04:51:18;;;;;;;488.17;456.05;;;17.50;99.90;;;;;;5073904;28;20162;-60
2022/07/19 04:53:44;;;;;;;478.77;449.02;;;17.60;99.90;;;;;;5074159;28;20063;-60
2022/07/19 04:56:10;;;;;;;490.02;457.33;;;17.60;99.90;;;;;;5073702;28;20122;-60
2022/07/19 04:58:36;;;;;;;501.73;468.48;;;17.70;99.90;;;;;;5075370;28;20037;-60
2022/07/19 05:01:01;;;;;;;503.38;469.75;;;17.80;99.90;;;;;;5073018;28;20063;-60
2022/07/19 05:03:27;;;;;;;471.75;441.85;;;17.90;99.90;;;;;;5073682;28;20048;-60
2022/07/19 05:05:53;;;;;;;532.95;496.42;;;17.90;99.90;;;;;;5074136;28;20103;-60
2022/07/19 05:08:19;;;;;;;527.80;491.02;;;18.00;99.90;;;;;;5072021;28;20427;-60
2022/07/19 05:10:45;;;;;;;506.50;474.40;;;18.10;99.90;;;;;;5074503;28;20049;-60
2022/07/19 05:13:11;;;;;;;504.77;472.38;;;18.20;99.90;;;;;;5074690;28;20045;-60
2022/07/19 05:15:37;;;;;;;448.40;419.10;;;18.20;99.90;;;;;;5072341;28;20044;-60
2022/07/19 05:18:03;;;;;;;473.27;442.48;;;18.30;99.90;;;;;;5074698;28;20102;-60
2022/07/19 05:20:29;;;;;;;439.67;410.88;;;18.40;99.90;;;;;;5074718;28;20111;-60
2022/07/19 05:22:54;;;;;;;368.45;347.05;;;18.50;99.90;;;;;;5055392;28;20053;-60
2022/07/19 05:25:20;;;;;;;508.25;475.15;;;18.60;99.90;;;;;;5072838;28;20047;-60
2022/07/19 05:27:46;;;;;;;503.35;471.20;;;18.70;99.90;;;;;;5073705;28;20568;-60
2022/07/19 05:30:12;;;;;;;453.15;426.48;;;18.80;99.90;;;;;;5055142;28;20112;-60
2022/07/19 05:32:38;;;;;;;455.10;423.48;;;19.00;99.90;;;;;;5067980;28;20119;-60
2022/07/19 05:35:04;;;;;;;518.78;484.77;;;19.10;99.90;;;;;;5066271;28;20131;-60
2022/07/19 05:37:30;;;;;;;473.55;443.58;;;19.20;99.90;;;;;;5093394;28;20082;-60
2022/07/19 05:39:55;;;;;;;411.42;386.33;;;19.40;99.90;;;;;;5094508;28;20397;-60
2022/07/19 05:42:21;;;;;;;352.52;332.20;;;19.50;99.90;;;;;;5091080;28;20092;-60
2022/07/19 05:44:47;;;;;;;304.85;288.38;;;19.70;99.90;;;;;;5072479;28;20134;-60
2022/07/19 05:47:13;;;;;;;447.95;419.58;;;19.90;99.90;;;;;;5052221;28;20048;-60
2022/07/19 05:49:38;;;;;;;293.55;277.73;;;20.00;99.90;;;;;;5053906;28;20048;-60
2022/07/19 05:52:04;;;;;;;412.33;388.05;;;20.10;99.90;;;;;;5072009;28;20115;-60
2022/07/19 05:54:30;;;;;;;421.85;394.98;;;20.30;99.90;;;;;;5094232;28;20044;-60
2022/07/19 05:56:56;;;;;;;331.48;312.30;;;20.40;99.90;;;;;;5094210;28;20039;-60
2022/07/19 05:59:22;;;;;;;434.95;408.75;;;20.50;99.90;;;;;;5092519;28;20097;-60
2022/07/19 06:01:49;;;;;;;481.45;452.27;;;20.70;99.90;;;;;;5075423;28;20055;-60
2022/07/19 06:04:15;;;;;;;386.63;363.83;;;20.80;99.90;;;;;;5093515;28;20043;-60
2022/07/19 06:06:40;;;;;;;428.00;402.05;;;21.00;99.90;;;;;;5093454;28;20044;-60
2022/07/19 06:09:07;;;;;;;560.60;522.72;;;21.00;99.90;;;;;;5080096;28;20129;-60
2022/07/19 06:11:33;;;;;;;410.73;386.15;;;21.20;99.90;;;;;;5054506;28;20075;-60
2022/07/19 06:13:59;;;;;;;319.30;302.25;;;21.30;99.90;;;;;;5073021;28;20074;-60
2022/07/19 06:16:25;;;;;;;362.42;342.10;;;21.40;99.90;;;;;;5073251;28;20533;-60
2022/07/19 06:18:51;;;;;;;362.20;341.38;;;21.60;99.90;;;;;;5084110;28;20052;-60
2022/07/19 06:21:19;;;;;;;315.27;297.23;;;21.80;99.90;;;;;;5093563;28;20044;-60
2022/07/19 06:23:45;;;;;;;418.75;394.80;;;21.90;99.90;;;;;;5093289;28;20044;-60
2022/07/19 06:26:12;;;;;;;398.83;375.35;;;22.10;99.90;;;;;;5092685;28;20485;-60
2022/07/19 06:28:39;;;;;;;331.08;313.08;;;22.30;99.90;;;;;;5072835;28;20102;-60
2022/07/19 06:31:09;;;;;;;316.85;300.08;;;22.40;99.90;;;;;;5072467;28;20048;-60
2022/07/19 06:33:35;;;;;;;287.75;272.88;;;22.60;99.90;;;;;;5051014;28;20053;-60
2022/07/19 06:36:01;;;;;;;333.13;315.80;;;22.70;99.90;;;;;;5068428;28;20047;-60
2022/07/19 06:38:27;;;;;;;396.58;373.38;;;22.90;99.90;;;;;;5093021;28;20048;-60
2022/07/19 06:40:53;;;;;;;385.20;363.30;;;23.10;99.90;;;;;;5092341;28;20043;-61
2022/07/19 06:43:18;;;;;;;355.38;336.90;;;23.20;99.90;;;;;;5093026;28;20490;-60
2022/07/19 06:45:44;;;;;;;339.42;322.38;;;23.40;99.90;;;;;;5059441;28;20482;-60
2022/07/19 06:48:10;;;;;;;327.73;310.80;;;23.50;99.90;;;;;;5054343;28;20057;-60
2022/07/19 06:50:36;;;;;;;384.25;363.80;;;23.70;99.90;;;;;;5054948;28;20094;-60
2022/07/19 06:53:02;;;;;;;407.42;385.40;;;;;;;;;;5055275;28;20052;-60
2022/07/19 06:55:28;;;;;;;384.30;363.85;;;24.00;99.90;;;;;;5071005;28;20075;-60
2022/07/19 06:57:53;;;;;;;313.25;297.40;;;24.20;99.90;;;;;;5072843;28;20060;-60
2022/07/19 07:00:19;;;;;;;372.13;353.05;;;24.30;99.90;;;;;;5086758;28;20063;-60
2022/07/19 07:02:45;;;;;;;347.05;328.70;;;24.50;99.90;;;;;;5073468;28;20048;-60
2022/07/19 07:05:12;;;;;;;308.55;293.23;;;24.70;99.90;;;;;;5091370;28;20044;-59
2022/07/19 07:07:39;;;;;;;255.88;243.50;;;24.80;99.90;;;;;;5071509;28;20052;-60
2022/07/19 07:10:06;;;;;;;318.38;302.13;;;25.00;99.90;;;;;;5072740;28;20402;-60
2022/07/19 07:12:33;;;;;;;286.73;273.40;;;25.20;99.90;;;;;;5084726;28;20056;-60
2022/07/19 07:14:58;;;;;;;259.35;246.50;;;25.30;99.90;;;;;;5071551;28;20044;-60
2022/07/19 07:17:24;;;;;;;359.75;341.10;;;25.60;99.90;;;;;;5072833;28;20059;-60
2022/07/19 07:19:50;;;;;;;280.80;266.85;;;25.70;99.90;;;;;;5072013;28;20025;-60
2022/07/19 07:22:16;;;;;;;278.15;265.13;;;25.90;99.90;;;;;;5071645;28;20084;-60
2022/07/19 07:24:41;;;;;;;244.27;232.63;;;26.00;99.90;;;;;;5072664;28;20072;-60
2022/07/19 07:27:07;;;;;;;194.15;185.40;;;26.20;99.90;;;;;;5072596;28;20056;-60
2022/07/19 07:29:33;;;;;;;207.55;197.90;;;;;;;;;;5071087;28;20048;-60
2022/07/19 07:31:59;;;;;;;218.52;208.23;;;26.60;99.90;;;;;;5072527;28;20080;-60
2022/07/19 07:34:25;;;;;;;146.38;139.52;;;26.80;99.60;;;;;;5072527;28;20076;-61
2022/07/19 07:36:51;;;;;;;251.13;239.18;;;27.00;98.90;;;;;;5071375;28;20053;-60
2022/07/19 07:39:17;;;;;;;250.93;239.38;;;27.20;97.60;;;;;;5094275;28;20135;-60
2022/07/19 07:41:42;;;;;;;169.77;161.95;;;27.30;96.80;;;;;;5090127;28;20524;-60
2022/07/19 07:44:08;;;;;;;219.10;209.32;;;27.50;95.70;;;;;;5073959;28;20052;-61
2022/07/19 07:46:34;;;;;;;223.15;213.23;;;27.70;95.80;;;;;;5076715;28;20040;-61
2022/07/19 07:49:00;;;;;;;189.25;181.13;;;27.90;95.40;;;;;;5075874;28;20056;-60
2022/07/19 07:51:25;;;;;;;248.30;236.85;;;28.00;95.10;;;;;;5057028;28;20041;-61
2022/07/19 07:53:52;;;;;;;243.73;232.23;;;28.20;94.80;;;;;;5075868;28;20514;-61
2022/07/19 07:56:17;;;;;;;219.20;209.25;;;28.40;95.10;;;;;;5074970;28;20044;-61
2022/07/19 07:58:43;;;;;;;184.80;176.77;;;28.50;94.40;;;;;;5074614;28;20054;-61
2022/07/19 08:01:09;;;;;;;232.82;222.75;;;28.70;94.10;;;;;;5078349;28;20044;-61
2022/07/19 08:03:35;;;;;;;210.70;201.38;;;28.80;93.80;;;;;;5096350;28;20121;-60
2022/07/19 08:06:01;;;;;;;134.02;128.18;;;29.00;93.20;;;;;;5094545;28;20044;-61
2022/07/19 08:08:27;;;;;;;193.20;184.95;;;29.20;92.60;;;;;;5088183;28;20051;-61
2022/07/19 08:10:54;;;;;;;193.73;185.07;;;29.40;92.30;;;;;;5075038;28;20128;-60
2022/07/19 08:13:20;;;;;;;180.85;173.18;;;29.50;91.30;;;;;;5078949;28;20044;-61
2022/07/19 08:15:46;;;;;;;161.30;154.43;;;29.60;91.10;;;;;;5074506;28;20036;-61
2022/07/19 08:18:12;;;;;;;163.80;156.80;;;29.70;88.20;;;;;;5055775;28;20656;-61
2022/07/19 08:20:38;;;;;;;179.70;172.07;;;29.80;90.10;;;;;;5074766;28;20098;-61
2022/07/19 08:23:03;;;;;;;161.88;155.00;;;30.00;89.30;;;;;;5076166;28;20044;-61
2022/07/19 08:25:29;;;;;;;171.73;163.80;;;30.20;87.80;;;;;;5074247;28;20048;-61
2022/07/19 08:27:55;;;;;;;159.50;152.65;;;30.40;83.00;;;;;;5056141;28;20044;-61
2022/07/19 08:30:21;;;;;;;148.40;141.90;;;30.50;83.50;;;;;;5076511;28;20041;-61
2022/07/19 08:32:47;;;;;;;175.65;168.32;;;30.60;82.80;;;;;;5087281;28;20050;-61
2022/07/19 08:35:12;;;;;;;155.82;149.30;;;30.70;81.30;;;;;;5075347;28;20095;-61
2022/07/19 08:37:38;;;;;;;148.70;142.32;;;30.90;79.30;;;;;;5075284;28;20056;-61
2022/07/19 08:40:05;;;;;;;138.82;132.93;;;31.00;78.60;;;;;;5074511;28;20061;-61
2022/07/19 08:42:31;;;;;;;147.23;140.38;;;31.10;77.70;;;;;;5074581;28;20056;-61
2022/07/19 08:45:01;;;;;;;165.85;158.88;;;31.10;77.10;;;;;;5040264;28;20048;-61
2022/07/19 08:47:29;;;;;;;145.10;138.77;;;31.10;76.70;;;;;;5074314;28;20132;-61
2022/07/19 08:49:57;;;;;;;125.03;119.55;;;31.20;76.30;;;;;;5090260;28;20044;-61
2022/07/19 08:52:24;;;;;;;132.35;126.78;;;31.40;75.80;;;;;;5095136;28;20054;-61
2022/07/19 08:54:50;;;;;;;151.13;144.32;;;31.40;75.60;;;;;;5094568;28;20048;-61
2022/07/19 09:00:04;;;;;;;135.27;129.57;;;31.80;74.00;;;;;;5095138;28;20055;-61
2022/07/19 09:02:29;;;;;;;124.38;118.95;;;32.00;73.40;;;;;;5095148;28;20469;-61
2022/07/19 09:05:00;;;;;;;101.07;96.55;;;32.20;71.90;;;;;;5066551;28;20036;-61
2022/07/19 09:07:26;;;;;;;84.70;80.95;;;32.30;69.50;;;;;;5061528;28;20914;-61
2022/07/19 09:09:52;;;;;;;100.90;96.47;;;32.30;68.70;;;;;;5086724;28;20082;-61
2022/07/19 09:12:18;;;;;;;95.57;91.38;;;32.30;69.90;;;;;;5080321;28;20622;-61
2022/07/19 09:14:53;;;;;;;90.55;85.80;;;32.50;69.00;;;;;;5072526;28;20092;-61
2022/07/19 09:17:20;;;;;;;115.20;110.13;;;32.60;67.30;;;;;;5054809;28;20044;-61
2022/07/19 09:19:49;;;;;;;91.93;87.70;;;32.70;68.40;;;;;;5053992;28;20502;-61
2022/07/19 09:22:18;;;;;;;73.47;69.78;;;32.70;67.30;;;;;;5053595;28;20104;-61
2022/07/19 09:24:46;;;;;;;82.63;78.93;;;32.90;65.50;;;;;;5069700;28;20049;-61
2022/07/19 09:27:13;;;;;;;72.38;69.03;;;33.10;65.80;;;;;;5063644;28;20091;-61
2022/07/19 09:29:41;;;;;;;77.57;74.10;;;33.20;64.70;;;;;;5053178;28;20048;-62
2022/07/19 09:32:15;;;;;;;70.32;66.57;;;33.30;63.20;;;;;;5054046;28;20053;-61
2022/07/19 09:34:53;;;;;;;66.18;63.05;;;33.50;62.50;;;;;;5060825;28;20393;-61
2022/07/19 09:37:22;;;;;;;62.08;59.20;;;33.60;62.90;;;;;;5093106;28;20048;-61
2022/07/19 09:39:51;;;;;;;68.75;65.53;;;33.60;61.50;;;;;;5076187;28;20044;-62
2022/07/19 09:42:22;;;;;;;80.88;77.28;;;33.50;60.40;;;;;;5080058;28;20044;-62
2022/07/19 09:44:58;;;;;;;58.45;55.08;;;33.60;59.90;;;;;;5065137;28;20095;-61
2022/07/19 09:47:32;;;;;;;53.97;51.53;;;33.60;59.60;;;;;;5059006;28;20170;-61
2022/07/19 09:49:59;;;;;;;66.65;63.70;;;33.50;61.30;;;;;;5055255;28;20095;-61
2022/07/19 09:52:26;;;;;;;60.50;57.85;;;33.50;61.30;;;;;;5082327;28;20045;-61
2022/07/19 09:54:52;;;;;;;66.63;63.60;;;33.80;60.40;;;;;;5066382;28;20568;-61
2022/07/19 09:57:23;;;;;;;64.60;61.33;;;33.90;59.80;;;;;;5066506;28;20045;-61
2022/07/19 09:59:53;;;;;;;62.30;59.45;;;34.00;58.70;;;;;;5073140;28;20040;-61
2022/07/19 10:02:22;;;;;;;92.50;88.40;;;34.10;60.40;;;;;;5073717;28;20084;-61
2022/07/19 10:04:49;;;;;;;64.50;61.55;;;34.10;61.10;;;;;;5072030;28;20041;-61
2022/07/19 10:07:17;;;;;;;56.83;53.88;;;34.10;58.30;;;;;;5072943;28;20048;-61
2022/07/19 10:09:44;;;;;;;85.05;81.25;;;34.30;58.60;;;;;;5072583;28;20047;-61
2022/07/19 10:12:11;;;;;;;78.40;74.88;;;34.40;55.90;;;;;;5071805;28;20139;-61
2022/07/19 10:14:36;;;;;;;71.25;67.65;;;34.60;55.70;;;;;;5072813;28;20037;-61
2022/07/19 10:17:30;;;;;;;64.20;61.22;;;34.60;57.00;;;;;;5054234;28;20175;-61
2022/07/19 10:19:56;;;;;;;61.10;58.00;;;34.60;56.80;;;;;;5070736;28;20391;-61
2022/07/19 10:22:24;;;;;;;80.90;75.82;;;34.60;57.50;;;;;;5072408;28;20058;-62
2022/07/19 10:24:59;;;;;;;79.32;75.38;;;34.50;56.20;;;;;;5071581;28;20090;-61
2022/07/19 10:27:25;;;;;;;58.63;55.97;;;34.60;55.80;;;;;;5073075;28;20040;-61
2022/07/19 10:29:51;;;;;;;68.38;65.07;;;34.70;56.70;;;;;;5072523;28;20475;-61
2022/07/19 10:32:17;;;;;;;66.50;63.50;;;34.90;56.40;;;;;;5072385;28;20059;-61
2022/07/19 10:34:51;;;;;;;105.68;101.10;;;35.10;56.20;;;;;;5072477;28;20048;-61
2022/07/19 10:37:43;;;;;;;119.93;114.38;;;35.40;55.20;;;;;;5073377;28;20059;-62
2022/07/19 10:40:09;;;;;;;75.55;72.15;;;35.70;53.30;;;;;;5071129;28;20032;-61
2022/07/19 10:42:35;;;;;;;113.15;108.13;;;35.90;53.80;;;;;;5071777;28;20056;-61
2022/07/19 10:45:02;;;;;;;86.57;82.50;;;36.10;52.60;;;;;;5090130;28;20470;-62
2022/07/19 10:47:32;;;;;;;94.25;90.10;;;36.40;53.50;;;;;;5086660;28;20136;-61
2022/07/19 10:50:09;;;;;;;131.80;126.25;;;36.70;52.80;;;;;;5071944;28;20045;-61
2022/07/19 10:52:37;;;;;;;63.83;60.83;;;37.10;52.50;;;;;;5078718;28;20044;-62
2022/07/19 10:55:25;;;;;;;71.80;68.50;;;37.60;51.90;;;;;;5092913;28;20055;-62
2022/07/19 10:58:11;;;;;;;85.47;81.68;;;38.10;51.30;;;;;;5075776;28;20049;-62
2022/07/19 11:00:47;;;;;;;93.80;89.75;;;38.60;49.50;;;;;;5070314;28;20105;-61
2022/07/19 11:03:22;;;;;;;84.88;81.13;;;39.20;47.60;;;;;;5063466;28;20036;-62
2022/07/19 11:05:59;;;;;;;88.13;84.28;;;39.30;48.60;;;;;;5068887;28;20048;-62
2022/07/19 11:08:36;;;;;;;90.07;85.85;;;39.60;47.90;;;;;;5070889;28;20036;-62
2022/07/19 11:11:03;;;;;;;75.43;71.90;;;39.80;47.00;;;;;;5052822;28;20045;-61
2022/07/19 11:13:29;;;;;;;62.53;59.65;;;39.90;46.10;;;;;;5051835;28;20056;-62
2022/07/19 11:15:57;;;;;;;60.45;57.33;;;39.80;47.00;;;;;;5069412;28;20052;-62
2022/07/19 11:18:22;;;;;;;65.63;62.25;;;39.80;46.20;;;;;;5070973;28;20549;-62
2022/07/19 11:20:49;;;;;;;67.15;63.92;;;39.80;46.30;;;;;;5092253;28;20040;-62
2022/07/19 11:23:20;;;;;;;63.20;60.33;;;40.10;45.30;;;;;;5092907;28;20048;-61
2022/07/19 11:25:46;;;;;;;67.03;64.05;;;40.60;44.70;;;;;;5074554;28;20051;-62
2022/07/19 11:28:21;;;;;;;62.00;59.25;;;40.60;44.70;;;;;;5091366;28;20044;-61
2022/07/19 11:30:47;;;;;;;67.45;64.28;;;40.90;43.40;;;;;;5092649;28;20040;-62
2022/07/19 11:33:17;;;;;;;55.22;52.45;;;41.00;42.60;;;;;;5081075;28;20052;-61
2022/07/19 11:35:56;;;;;;;49.38;47.17;;;41.00;42.50;;;;;;5071378;28;20052;-62
2022/07/19 11:38:22;;;;;;;52.65;50.15;;;40.80;43.00;;;;;;5072891;28;20051;-62
2022/07/19 11:40:47;;;;;;;54.78;52.15;;;40.80;42.20;;;;;;5071233;28;20045;-62
2022/07/19 11:43:13;;;;;;;55.95;53.20;;;40.80;42.00;;;;;;5071039;28;20131;-62
2022/07/19 11:45:48;;;;;;;56.00;52.75;;;40.80;41.90;;;;;;5071751;28;20044;-62
2022/07/19 11:48:25;;;;;;;54.72;52.10;;;40.80;42.20;;;;;;5071902;28;20052;-62
2022/07/19 11:51:03;;;;;;;52.90;50.30;;;40.80;42.80;;;;;;5070500;28;20503;-62
2022/07/19 11:53:29;;;;;;;49.97;47.55;;;41.00;42.50;;;;;;5072400;28;20063;-61
2022/07/19 11:55:56;;;;;;;52.58;49.90;;;41.00;43.10;;;;;;5089440;28;20129;-62
2022/07/19 11:58:23;;;;;;;57.47;54.90;;;41.30;43.50;;;;;;5092544;28;20087;-62
2022/07/19 12:00:49;;;;;;;51.28;49.05;;;41.50;43.10;;;;;;5074412;28;20059;-62
2022/07/19 12:03:16;;;;;;;56.00;53.38;;;41.70;43.10;;;;;;5067013;28;20041;-62
2022/07/19 12:05:56;;;;;;;54.63;52.17;;;41.70;42.30;;;;;;5063528;28;20043;-61
2022/07/19 12:08:32;;;;;;;49.65;47.35;;;41.70;42.70;;;;;;5067321;28;20591;-61
2022/07/19 12:10:58;;;;;;;53.70;50.85;;;41.60;41.10;;;;;;5070453;28;20032;-61
2022/07/19 12:13:32;;;;;;;50.38;47.95;;;41.50;40.60;;;;;;5075254;28;20052;-61
2022/07/19 12:16:06;;;;;;;52.05;49.70;;;41.60;41.60;;;;;;5072118;28;20040;-61